Logan, Kansas
Current Conditions -  °F | °C
As of 7:53 AM on Monday 24 Nov 2014 (Local Time) from KHLC Reporting Station
Clear Clear  
Wind Chill: 20°   Ceiling: Unl
Heat Index: 29°   Visibility: 10mi
Dew Point: 15°   Wind: 10mph
Humidity: 56%   Direction: 270°W
Pressure: 29.83"   Gusts: NA
Location:  39.66°N, 99.57°W
Report Text: KHLC 241353Z AUTO 27009KT 10SM CLR M02/M09 A2983 RMK AO2 SLP115 T10171094
Loading
Personal Weather Stations






























Interactive Weather Map New forecast layout! Learn more

10-Day Weather Forecast

Advertisements
Track Severe Weather on mobile